sensor_id;sensor_type;location;lat;lon;timestamp;P1;durP1;ratioP1;P2;durP2;ratioP2
77040;SDS011;65974;42.664;23.264;2023-11-21T00:00:12;17.70;;;9.20;;
77040;SDS011;65974;42.664;23.264;2023-11-21T00:02:41;17.05;;;7.63;;
77040;SDS011;65974;42.664;23.264;2023-11-21T00:05:10;59.10;;;21.85;;
77040;SDS011;65974;42.664;23.264;2023-11-21T00:07:39;183.50;;;56.97;;
77040;SDS011;65974;42.664;23.264;2023-11-21T00:10:05;35.88;;;14.93;;
77040;SDS011;65974;42.664;23.264;2023-11-21T00:12:33;22.02;;;10.73;;
77040;SDS011;65974;42.664;23.264;2023-11-21T00:14:59;19.65;;;9.40;;
77040;SDS011;65974;42.664;23.264;2023-11-21T00:17:25;16.63;;;9.32;;
77040;SDS011;65974;42.664;23.264;2023-11-21T00:19:50;16.85;;;8.57;;
77040;SDS011;65974;42.664;23.264;2023-11-21T00:22:20;18.95;;;10.43;;
77040;SDS011;65974;42.664;23.264;2023-11-21T00:24:46;25.83;;;11.77;;
77040;SDS011;65974;42.664;23.264;2023-11-21T00:27:12;22.20;;;12.00;;
77040;SDS011;65974;42.664;23.264;2023-11-21T00:29:40;30.33;;;14.13;;
77040;SDS011;65974;42.664;23.264;2023-11-21T00:32:06;32.70;;;11.48;;
77040;SDS011;65974;42.664;23.264;2023-11-21T00:34:32;23.67;;;12.52;;
77040;SDS011;65974;42.664;23.264;2023-11-21T00:36:59;26.85;;;11.95;;
77040;SDS011;65974;42.664;23.264;2023-11-21T00:39:25;29.75;;;13.63;;
77040;SDS011;65974;42.664;23.264;2023-11-21T00:41:51;25.35;;;13.25;;
77040;SDS011;65974;42.664;23.264;2023-11-21T00:44:17;27.83;;;13.05;;
77040;SDS011;65974;42.664;23.264;2023-11-21T00:46:42;26.77;;;12.02;;
77040;SDS011;65974;42.664;23.264;2023-11-21T00:49:08;25.02;;;12.52;;
77040;SDS011;65974;42.664;23.264;2023-11-21T00:51:33;27.02;;;13.43;;
77040;SDS011;65974;42.664;23.264;2023-11-21T00:53:59;27.45;;;12.75;;
77040;SDS011;65974;42.664;23.264;2023-11-21T00:56:25;26.60;;;12.02;;
77040;SDS011;65974;42.664;23.264;2023-11-21T00:58:50;23.92;;;12.10;;
77040;SDS011;65974;42.664;23.264;2023-11-21T01:01:18;27.23;;;14.07;;
77040;SDS011;65974;42.664;23.264;2023-11-21T01:03:45;25.60;;;13.43;;
77040;SDS011;65974;42.664;23.264;2023-11-21T01:06:11;27.17;;;13.50;;
77040;SDS011;65974;42.664;23.264;2023-11-21T01:08:37;22.00;;;9.85;;
77040;SDS011;65974;42.664;23.264;2023-11-21T01:11:02;19.40;;;10.73;;
77040;SDS011;65974;42.664;23.264;2023-11-21T01:13:28;22.20;;;11.18;;
77040;SDS011;65974;42.664;23.264;2023-11-21T01:15:54;24.13;;;12.32;;
77040;SDS011;65974;42.664;23.264;2023-11-21T01:18:20;19.77;;;10.50;;
77040;SDS011;65974;42.664;23.264;2023-11-21T01:20:46;25.77;;;11.52;;
77040;SDS011;65974;42.664;23.264;2023-11-21T01:23:12;19.88;;;10.05;;
77040;SDS011;65974;42.664;23.264;2023-11-21T01:28:05;24.67;;;9.63;;
77040;SDS011;65974;42.664;23.264;2023-11-21T01:30:32;28.00;;;12.65;;
77040;SDS011;65974;42.664;23.264;2023-11-21T01:32:57;19.45;;;9.95;;
77040;SDS011;65974;42.664;23.264;2023-11-21T01:35:24;22.40;;;9.50;;
77040;SDS011;65974;42.664;23.264;2023-11-21T01:37:49;16.42;;;9.23;;
77040;SDS011;65974;42.664;23.264;2023-11-21T01:40:16;19.70;;;10.45;;
77040;SDS011;65974;42.664;23.264;2023-11-21T01:42:42;24.77;;;10.68;;
77040;SDS011;65974;42.664;23.264;2023-11-21T01:45:09;23.98;;;11.00;;
77040;SDS011;65974;42.664;23.264;2023-11-21T01:47:35;17.70;;;9.63;;
77040;SDS011;65974;42.664;23.264;2023-11-21T01:50:02;23.08;;;9.80;;
77040;SDS011;65974;42.664;23.264;2023-11-21T01:52:29;17.95;;;9.98;;
77040;SDS011;65974;42.664;23.264;2023-11-21T01:54:55;17.00;;;10.05;;
77040;SDS011;65974;42.664;23.264;2023-11-21T01:57:22;26.13;;;9.95;;
77040;SDS011;65974;42.664;23.264;2023-11-21T01:59:48;17.88;;;9.38;;
77040;SDS011;65974;42.664;23.264;2023-11-21T02:04:44;18.88;;;9.32;;
77040;SDS011;65974;42.664;23.264;2023-11-21T02:07:09;15.90;;;8.75;;
77040;SDS011;65974;42.664;23.264;2023-11-21T02:09:35;16.95;;;8.75;;
77040;SDS011;65974;42.664;23.264;2023-11-21T02:12:03;20.33;;;8.68;;
77040;SDS011;65974;42.664;23.264;2023-11-21T02:14:30;22.80;;;10.13;;
77040;SDS011;65974;42.664;23.264;2023-11-21T02:16:55;19.17;;;8.68;;
77040;SDS011;65974;42.664;23.264;2023-11-21T02:19:22;14.40;;;7.78;;
77040;SDS011;65974;42.664;23.264;2023-11-21T02:21:50;13.15;;;6.82;;
77040;SDS011;65974;42.664;23.264;2023-11-21T02:24:22;14.57;;;7.80;;
77040;SDS011;65974;42.664;23.264;2023-11-21T02:26:48;14.23;;;7.57;;
77040;SDS011;65974;42.664;23.264;2023-11-21T02:31:43;18.00;;;7.95;;
77040;SDS011;65974;42.664;23.264;2023-11-21T02:34:16;19.23;;;9.75;;
77040;SDS011;65974;42.664;23.264;2023-11-21T02:36:44;13.20;;;8.07;;
77040;SDS011;65974;42.664;23.264;2023-11-21T02:39:10;23.35;;;10.07;;
77040;SDS011;65974;42.664;23.264;2023-11-21T02:41:37;15.95;;;8.48;;
77040;SDS011;65974;42.664;23.264;2023-11-21T02:44:04;13.32;;;7.93;;
77040;SDS011;65974;42.664;23.264;2023-11-21T02:46:31;16.05;;;7.80;;
77040;SDS011;65974;42.664;23.264;2023-11-21T02:48:59;13.10;;;7.28;;
77040;SDS011;65974;42.664;23.264;2023-11-21T02:51:25;17.50;;;8.82;;
77040;SDS011;65974;42.664;23.264;2023-11-21T02:53:50;22.60;;;10.52;;
77040;SDS011;65974;42.664;23.264;2023-11-21T02:56:16;16.98;;;8.18;;
77040;SDS011;65974;42.664;23.264;2023-11-21T02:58:42;16.65;;;9.15;;
77040;SDS011;65974;42.664;23.264;2023-11-21T03:01:09;17.35;;;9.23;;
77040;SDS011;65974;42.664;23.264;2023-11-21T03:03:35;15.50;;;8.43;;
77040;SDS011;65974;42.664;23.264;2023-11-21T03:06:04;15.40;;;8.32;;
77040;SDS011;65974;42.664;23.264;2023-11-21T03:08:29;19.52;;;8.82;;
77040;SDS011;65974;42.664;23.264;2023-11-21T03:10:55;16.35;;;8.93;;
77040;SDS011;65974;42.664;23.264;2023-11-21T03:13:21;16.40;;;8.32;;
77040;SDS011;65974;42.664;23.264;2023-11-21T03:15:46;14.75;;;8.05;;
77040;SDS011;65974;42.664;23.264;2023-11-21T03:18:12;18.08;;;8.27;;
77040;SDS011;65974;42.664;23.264;2023-11-21T03:20:38;19.58;;;8.48;;
77040;SDS011;65974;42.664;23.264;2023-11-21T03:23:04;21.27;;;10.20;;
77040;SDS011;65974;42.664;23.264;2023-11-21T03:25:30;18.20;;;9.00;;
77040;SDS011;65974;42.664;23.264;2023-11-21T03:27:56;20.85;;;8.52;;
77040;SDS011;65974;42.664;23.264;2023-11-21T03:30:21;18.70;;;9.15;;
77040;SDS011;65974;42.664;23.264;2023-11-21T03:32:47;15.35;;;8.35;;
77040;SDS011;65974;42.664;23.264;2023-11-21T03:35:14;23.92;;;12.18;;
77040;SDS011;65974;42.664;23.264;2023-11-21T03:37:39;20.80;;;11.60;;
77040;SDS011;65974;42.664;23.264;2023-11-21T03:40:06;23.20;;;9.43;;
77040;SDS011;65974;42.664;23.264;2023-11-21T03:42:34;19.40;;;10.20;;
77040;SDS011;65974;42.664;23.264;2023-11-21T03:45:06;17.40;;;9.05;;
77040;SDS011;65974;42.664;23.264;2023-11-21T03:47:32;17.10;;;8.75;;
77040;SDS011;65974;42.664;23.264;2023-11-21T03:49:58;19.90;;;8.38;;
77040;SDS011;65974;42.664;23.264;2023-11-21T03:52:24;23.45;;;9.85;;
77040;SDS011;65974;42.664;23.264;2023-11-21T03:54:52;19.30;;;9.23;;
77040;SDS011;65974;42.664;23.264;2023-11-21T03:57:17;17.80;;;9.23;;
77040;SDS011;65974;42.664;23.264;2023-11-21T03:59:43;18.45;;;10.90;;
77040;SDS011;65974;42.664;23.264;2023-11-21T04:02:08;22.77;;;10.90;;
77040;SDS011;65974;42.664;23.264;2023-11-21T04:04:35;21.23;;;9.77;;
77040;SDS011;65974;42.664;23.264;2023-11-21T04:07:01;23.75;;;11.10;;
77040;SDS011;65974;42.664;23.264;2023-11-21T04:09:26;23.27;;;11.02;;
77040;SDS011;65974;42.664;23.264;2023-11-21T04:11:52;17.77;;;10.13;;
77040;SDS011;65974;42.664;23.264;2023-11-21T04:14:18;18.20;;;8.98;;
77040;SDS011;65974;42.664;23.264;2023-11-21T04:16:43;19.58;;;9.55;;
77040;SDS011;65974;42.664;23.264;2023-11-21T04:19:10;21.45;;;9.43;;
77040;SDS011;65974;42.664;23.264;2023-11-21T04:21:38;21.65;;;9.90;;
77040;SDS011;65974;42.664;23.264;2023-11-21T04:24:05;21.17;;;10.60;;
77040;SDS011;65974;42.664;23.264;2023-11-21T04:26:31;23.15;;;10.25;;
77040;SDS011;65974;42.664;23.264;2023-11-21T04:28:56;28.67;;;13.05;;
77040;SDS011;65974;42.664;23.264;2023-11-21T04:31:22;21.15;;;12.20;;
77040;SDS011;65974;42.664;23.264;2023-11-21T04:33:47;24.38;;;12.07;;
77040;SDS011;65974;42.664;23.264;2023-11-21T04:36:16;24.88;;;14.10;;
77040;SDS011;65974;42.664;23.264;2023-11-21T04:38:44;19.52;;;11.25;;
77040;SDS011;65974;42.664;23.264;2023-11-21T04:41:11;15.20;;;9.07;;
77040;SDS011;65974;42.664;23.264;2023-11-21T04:43:37;20.52;;;10.52;;
77040;SDS011;65974;42.664;23.264;2023-11-21T04:46:02;23.02;;;11.60;;
77040;SDS011;65974;42.664;23.264;2023-11-21T04:48:28;22.40;;;11.50;;
77040;SDS011;65974;42.664;23.264;2023-11-21T04:50:53;18.80;;;10.07;;
77040;SDS011;65974;42.664;23.264;2023-11-21T04:53:19;17.48;;;10.50;;
77040;SDS011;65974;42.664;23.264;2023-11-21T04:55:44;20.48;;;10.77;;
77040;SDS011;65974;42.664;23.264;2023-11-21T04:58:10;20.33;;;11.60;;
77040;SDS011;65974;42.664;23.264;2023-11-21T05:00:37;23.02;;;12.32;;
77040;SDS011;65974;42.664;23.264;2023-11-21T05:03:02;26.00;;;13.25;;
77040;SDS011;65974;42.664;23.264;2023-11-21T05:05:29;14.65;;;7.47;;
77040;SDS011;65974;42.664;23.264;2023-11-21T05:07:59;28.13;;;11.07;;
77040;SDS011;65974;42.664;23.264;2023-11-21T05:10:24;19.20;;;10.63;;
77040;SDS011;65974;42.664;23.264;2023-11-21T05:12:52;16.70;;;9.30;;
77040;SDS011;65974;42.664;23.264;2023-11-21T05:15:18;23.48;;;12.55;;
77040;SDS011;65974;42.664;23.264;2023-11-21T05:17:44;12.18;;;6.50;;
77040;SDS011;65974;42.664;23.264;2023-11-21T05:20:11;15.57;;;10.32;;
77040;SDS011;65974;42.664;23.264;2023-11-21T05:22:39;17.92;;;11.25;;
77040;SDS011;65974;42.664;23.264;2023-11-21T05:25:05;21.70;;;13.52;;
77040;SDS011;65974;42.664;23.264;2023-11-21T05:27:33;21.35;;;9.45;;
77040;SDS011;65974;42.664;23.264;2023-11-21T05:29:59;17.52;;;9.18;;
77040;SDS011;65974;42.664;23.264;2023-11-21T05:32:24;19.05;;;9.80;;
77040;SDS011;65974;42.664;23.264;2023-11-21T05:34:50;23.30;;;8.85;;
77040;SDS011;65974;42.664;23.264;2023-11-21T05:37:16;17.33;;;8.18;;
77040;SDS011;65974;42.664;23.264;2023-11-21T05:39:42;22.13;;;11.15;;
77040;SDS011;65974;42.664;23.264;2023-11-21T05:42:08;13.25;;;7.40;;
77040;SDS011;65974;42.664;23.264;2023-11-21T05:44:35;23.92;;;13.93;;
77040;SDS011;65974;42.664;23.264;2023-11-21T05:47:02;17.42;;;11.45;;
77040;SDS011;65974;42.664;23.264;2023-11-21T05:49:29;25.63;;;12.02;;
77040;SDS011;65974;42.664;23.264;2023-11-21T05:51:55;28.17;;;14.32;;
77040;SDS011;65974;42.664;23.264;2023-11-21T05:54:21;16.40;;;12.02;;
77040;SDS011;65974;42.664;23.264;2023-11-21T05:56:47;29.50;;;15.77;;
77040;SDS011;65974;42.664;23.264;2023-11-21T05:59:14;23.42;;;12.77;;
77040;SDS011;65974;42.664;23.264;2023-11-21T06:01:39;22.35;;;12.38;;
77040;SDS011;65974;42.664;23.264;2023-11-21T06:04:05;36.30;;;16.80;;
77040;SDS011;65974;42.664;23.264;2023-11-21T06:06:34;24.40;;;14.75;;
77040;SDS011;65974;42.664;23.264;2023-11-21T06:09:00;45.72;;;21.83;;
77040;SDS011;65974;42.664;23.264;2023-11-21T06:11:26;53.97;;;22.45;;
77040;SDS011;65974;42.664;23.264;2023-11-21T06:13:51;26.42;;;13.13;;
77040;SDS011;65974;42.664;23.264;2023-11-21T06:16:19;24.70;;;13.90;;
77040;SDS011;65974;42.664;23.264;2023-11-21T06:18:45;20.90;;;10.35;;
77040;SDS011;65974;42.664;23.264;2023-11-21T06:21:11;32.10;;;17.33;;
77040;SDS011;65974;42.664;23.264;2023-11-21T06:23:37;34.83;;;18.90;;
77040;SDS011;65974;42.664;23.264;2023-11-21T06:26:02;20.98;;;12.13;;
77040;SDS011;65974;42.664;23.264;2023-11-21T06:28:29;26.63;;;13.93;;
77040;SDS011;65974;42.664;23.264;2023-11-21T06:30:55;27.90;;;16.88;;
77040;SDS011;65974;42.664;23.264;2023-11-21T06:33:23;31.15;;;19.85;;
77040;SDS011;65974;42.664;23.264;2023-11-21T06:35:49;33.05;;;18.55;;
77040;SDS011;65974;42.664;23.264;2023-11-21T06:38:14;13.90;;;11.70;;
77040;SDS011;65974;42.664;23.264;2023-11-21T06:40:40;16.38;;;12.40;;
77040;SDS011;65974;42.664;23.264;2023-11-21T06:43:06;28.88;;;15.45;;
77040;SDS011;65974;42.664;23.264;2023-11-21T06:45:32;21.45;;;14.23;;
77040;SDS011;65974;42.664;23.264;2023-11-21T06:48:00;24.50;;;12.07;;
77040;SDS011;65974;42.664;23.264;2023-11-21T06:50:25;32.28;;;12.82;;
77040;SDS011;65974;42.664;23.264;2023-11-21T06:52:51;39.47;;;19.27;;
77040;SDS011;65974;42.664;23.264;2023-11-21T06:55:16;33.78;;;16.05;;
77040;SDS011;65974;42.664;23.264;2023-11-21T06:57:41;29.48;;;17.15;;
77040;SDS011;65974;42.664;23.264;2023-11-21T07:00:08;35.80;;;18.65;;
77040;SDS011;65974;42.664;23.264;2023-11-21T07:02:34;25.10;;;16.15;;
77040;SDS011;65974;42.664;23.264;2023-11-21T07:05:00;38.55;;;20.70;;
77040;SDS011;65974;42.664;23.264;2023-11-21T07:07:25;34.15;;;19.63;;
77040;SDS011;65974;42.664;23.264;2023-11-21T07:09:51;29.95;;;16.10;;
77040;SDS011;65974;42.664;23.264;2023-11-21T07:12:17;44.42;;;24.25;;
77040;SDS011;65974;42.664;23.264;2023-11-21T07:14:42;33.13;;;20.08;;
77040;SDS011;65974;42.664;23.264;2023-11-21T07:17:10;29.70;;;18.30;;
77040;SDS011;65974;42.664;23.264;2023-11-21T07:19:39;34.72;;;18.55;;
77040;SDS011;65974;42.664;23.264;2023-11-21T07:22:04;27.73;;;14.90;;
77040;SDS011;65974;42.664;23.264;2023-11-21T07:24:31;29.73;;;18.52;;
77040;SDS011;65974;42.664;23.264;2023-11-21T07:26:57;24.23;;;13.90;;
77040;SDS011;65974;42.664;23.264;2023-11-21T07:29:24;40.20;;;24.15;;
77040;SDS011;65974;42.664;23.264;2023-11-21T07:31:54;32.92;;;15.50;;
77040;SDS011;65974;42.664;23.264;2023-11-21T07:34:20;29.60;;;17.50;;
77040;SDS011;65974;42.664;23.264;2023-11-21T07:36:46;24.95;;;14.90;;
77040;SDS011;65974;42.664;23.264;2023-11-21T07:39:12;32.83;;;16.90;;
77040;SDS011;65974;42.664;23.264;2023-11-21T07:41:40;28.25;;;17.15;;
77040;SDS011;65974;42.664;23.264;2023-11-21T07:44:10;32.38;;;15.15;;
77040;SDS011;65974;42.664;23.264;2023-11-21T07:46:35;19.70;;;12.05;;
77040;SDS011;65974;42.664;23.264;2023-11-21T07:49:01;38.17;;;17.13;;
77040;SDS011;65974;42.664;23.264;2023-11-21T07:51:26;31.75;;;18.65;;
77040;SDS011;65974;42.664;23.264;2023-11-21T07:53:52;19.10;;;12.25;;
77040;SDS011;65974;42.664;23.264;2023-11-21T07:56:17;20.65;;;13.60;;
77040;SDS011;65974;42.664;23.264;2023-11-21T07:58:43;32.42;;;16.70;;
77040;SDS011;65974;42.664;23.264;2023-11-21T08:01:10;27.60;;;18.05;;
77040;SDS011;65974;42.664;23.264;2023-11-21T08:03:37;30.50;;;18.17;;
77040;SDS011;65974;42.664;23.264;2023-11-21T08:06:02;30.98;;;17.95;;
77040;SDS011;65974;42.664;23.264;2023-11-21T08:08:30;16.30;;;11.27;;
77040;SDS011;65974;42.664;23.264;2023-11-21T08:10:57;29.48;;;17.55;;
77040;SDS011;65974;42.664;23.264;2023-11-21T08:13:23;28.48;;;17.15;;
77040;SDS011;65974;42.664;23.264;2023-11-21T08:15:49;30.25;;;18.60;;
77040;SDS011;65974;42.664;23.264;2023-11-21T08:18:14;26.58;;;10.98;;
77040;SDS011;65974;42.664;23.264;2023-11-21T08:20:41;38.72;;;19.40;;
77040;SDS011;65974;42.664;23.264;2023-11-21T08:23:07;37.45;;;17.75;;
77040;SDS011;65974;42.664;23.264;2023-11-21T08:25:32;32.58;;;18.92;;
77040;SDS011;65974;42.664;23.264;2023-11-21T08:27:59;26.90;;;14.50;;
77040;SDS011;65974;42.664;23.264;2023-11-21T08:30:25;26.10;;;16.85;;
77040;SDS011;65974;42.664;23.264;2023-11-21T08:32:53;17.88;;;10.82;;
77040;SDS011;65974;42.664;23.264;2023-11-21T08:35:18;28.67;;;13.40;;
77040;SDS011;65974;42.664;23.264;2023-11-21T08:37:44;26.95;;;16.80;;
77040;SDS011;65974;42.664;23.264;2023-11-21T08:40:10;12.77;;;9.20;;
77040;SDS011;65974;42.664;23.264;2023-11-21T08:42:41;22.98;;;13.23;;
77040;SDS011;65974;42.664;23.264;2023-11-21T08:45:07;17.40;;;10.68;;
77040;SDS011;65974;42.664;23.264;2023-11-21T08:47:34;19.58;;;13.13;;
77040;SDS011;65974;42.664;23.264;2023-11-21T08:50:01;34.08;;;19.60;;
77040;SDS011;65974;42.664;23.264;2023-11-21T08:52:29;15.65;;;10.18;;
77040;SDS011;65974;42.664;23.264;2023-11-21T08:54:54;25.27;;;15.30;;
77040;SDS011;65974;42.664;23.264;2023-11-21T08:57:27;16.15;;;9.60;;
77040;SDS011;65974;42.664;23.264;2023-11-21T08:59:53;27.75;;;16.80;;
77040;SDS011;65974;42.664;23.264;2023-11-21T09:02:25;21.77;;;11.35;;
77040;SDS011;65974;42.664;23.264;2023-11-21T09:04:51;31.02;;;20.17;;
77040;SDS011;65974;42.664;23.264;2023-11-21T09:07:18;24.08;;;14.55;;
77040;SDS011;65974;42.664;23.264;2023-11-21T09:09:45;27.45;;;16.00;;
77040;SDS011;65974;42.664;23.264;2023-11-21T09:12:14;27.00;;;16.10;;
77040;SDS011;65974;42.664;23.264;2023-11-21T09:14:40;21.70;;;12.50;;
77040;SDS011;65974;42.664;23.264;2023-11-21T09:17:07;25.75;;;15.35;;
77040;SDS011;65974;42.664;23.264;2023-11-21T09:19:39;38.92;;;19.90;;
77040;SDS011;65974;42.664;23.264;2023-11-21T09:22:05;28.15;;;16.02;;
77040;SDS011;65974;42.664;23.264;2023-11-21T09:24:31;32.03;;;18.42;;
77040;SDS011;65974;42.664;23.264;2023-11-21T09:26:57;51.17;;;25.70;;
77040;SDS011;65974;42.664;23.264;2023-11-21T09:29:23;37.15;;;18.95;;
77040;SDS011;65974;42.664;23.264;2023-11-21T09:31:48;32.17;;;17.75;;
77040;SDS011;65974;42.664;23.264;2023-11-21T09:34:16;29.30;;;17.85;;
77040;SDS011;65974;42.664;23.264;2023-11-21T09:36:44;16.35;;;13.05;;
77040;SDS011;65974;42.664;23.264;2023-11-21T09:39:10;20.25;;;15.10;;
77040;SDS011;65974;42.664;23.264;2023-11-21T09:41:52;34.60;;;21.48;;
77040;SDS011;65974;42.664;23.264;2023-11-21T09:47:00;26.50;;;13.98;;
77040;SDS011;65974;42.664;23.264;2023-11-21T09:49:27;20.38;;;11.40;;
77040;SDS011;65974;42.664;23.264;2023-11-21T09:51:57;21.63;;;11.23;;
77040;SDS011;65974;42.664;23.264;2023-11-21T09:54:25;21.40;;;11.02;;
77040;SDS011;65974;42.664;23.264;2023-11-21T09:56:51;23.08;;;14.98;;
77040;SDS011;65974;42.664;23.264;2023-11-21T09:59:17;31.95;;;17.85;;
77040;SDS011;65974;42.664;23.264;2023-11-21T10:01:43;11.10;;;5.90;;
77040;SDS011;65974;42.664;23.264;2023-11-21T10:06:41;20.75;;;9.50;;
77040;SDS011;65974;42.664;23.264;2023-11-21T10:09:08;22.88;;;11.45;;
77040;SDS011;65974;42.664;23.264;2023-11-21T10:11:40;17.27;;;11.68;;
77040;SDS011;65974;42.664;23.264;2023-11-21T10:14:07;17.65;;;10.18;;
77040;SDS011;65974;42.664;23.264;2023-11-21T10:16:35;14.13;;;8.73;;
77040;SDS011;65974;42.664;23.264;2023-11-21T10:19:04;17.40;;;11.40;;
77040;SDS011;65974;42.664;23.264;2023-11-21T10:21:34;12.27;;;7.05;;
77040;SDS011;65974;42.664;23.264;2023-11-21T10:23:59;14.80;;;9.68;;
77040;SDS011;65974;42.664;23.264;2023-11-21T10:26:26;19.25;;;9.82;;
77040;SDS011;65974;42.664;23.264;2023-11-21T10:28:57;21.45;;;12.80;;
77040;SDS011;65974;42.664;23.264;2023-11-21T10:31:24;14.00;;;9.48;;
77040;SDS011;65974;42.664;23.264;2023-11-21T10:33:52;20.80;;;11.57;;
77040;SDS011;65974;42.664;23.264;2023-11-21T10:36:28;19.83;;;11.60;;
77040;SDS011;65974;42.664;23.264;2023-11-21T10:38:54;17.15;;;10.18;;
77040;SDS011;65974;42.664;23.264;2023-11-21T10:41:20;17.70;;;10.73;;
77040;SDS011;65974;42.664;23.264;2023-11-21T10:43:46;16.88;;;11.48;;
77040;SDS011;65974;42.664;23.264;2023-11-21T10:46:11;13.70;;;9.80;;
77040;SDS011;65974;42.664;23.264;2023-11-21T10:48:38;12.07;;;7.80;;
77040;SDS011;65974;42.664;23.264;2023-11-21T10:51:07;19.48;;;12.55;;
77040;SDS011;65974;42.664;23.264;2023-11-21T10:53:35;11.98;;;8.25;;
77040;SDS011;65974;42.664;23.264;2023-11-21T10:56:08;15.02;;;10.50;;
77040;SDS011;65974;42.664;23.264;2023-11-21T10:58:36;18.75;;;9.98;;
77040;SDS011;65974;42.664;23.264;2023-11-21T11:01:04;17.67;;;12.82;;
77040;SDS011;65974;42.664;23.264;2023-11-21T11:03:33;20.60;;;10.68;;
77040;SDS011;65974;42.664;23.264;2023-11-21T11:06:01;15.85;;;8.82;;
77040;SDS011;65974;42.664;23.264;2023-11-21T11:08:29;22.88;;;12.93;;
77040;SDS011;65974;42.664;23.264;2023-11-21T11:10:55;20.10;;;12.45;;
77040;SDS011;65974;42.664;23.264;2023-11-21T11:13:21;27.85;;;16.77;;
77040;SDS011;65974;42.664;23.264;2023-11-21T11:15:48;21.23;;;11.00;;
77040;SDS011;65974;42.664;23.264;2023-11-21T11:18:14;16.17;;;10.93;;
77040;SDS011;65974;42.664;23.264;2023-11-21T11:20:42;26.70;;;13.05;;
77040;SDS011;65974;42.664;23.264;2023-11-21T11:23:29;19.40;;;12.90;;
77040;SDS011;65974;42.664;23.264;2023-11-21T11:32:00;24.13;;;10.63;;
77040;SDS011;65974;42.664;23.264;2023-11-21T11:37:11;21.42;;;13.18;;
77040;SDS011;65974;42.664;23.264;2023-11-21T11:42:07;12.10;;;7.30;;
77040;SDS011;65974;42.664;23.264;2023-11-21T11:47:31;10.50;;;8.15;;
77040;SDS011;65974;42.664;23.264;2023-11-21T11:50:06;35.20;;;18.05;;
77040;SDS011;65974;42.664;23.264;2023-11-21T11:52:50;17.88;;;10.93;;
77040;SDS011;65974;42.664;23.264;2023-11-21T11:55:19;23.00;;;13.32;;
77040;SDS011;65974;42.664;23.264;2023-11-21T11:57:47;22.23;;;13.68;;
77040;SDS011;65974;42.664;23.264;2023-11-21T12:00:16;19.88;;;11.32;;
77040;SDS011;65974;42.664;23.264;2023-11-21T12:02:47;18.60;;;11.70;;
77040;SDS011;65974;42.664;23.264;2023-11-21T12:05:14;19.80;;;12.45;;
77040;SDS011;65974;42.664;23.264;2023-11-21T12:10:13;32.95;;;14.35;;
77040;SDS011;65974;42.664;23.264;2023-11-21T12:12:49;24.52;;;14.25;;
77040;SDS011;65974;42.664;23.264;2023-11-21T12:15:17;35.42;;;20.40;;
77040;SDS011;65974;42.664;23.264;2023-11-21T12:17:44;35.13;;;20.73;;
77040;SDS011;65974;42.664;23.264;2023-11-21T12:20:12;35.50;;;21.77;;
77040;SDS011;65974;42.664;23.264;2023-11-21T12:22:52;34.10;;;19.23;;
77040;SDS011;65974;42.664;23.264;2023-11-21T12:25:23;30.48;;;18.80;;
77040;SDS011;65974;42.664;23.264;2023-11-21T12:27:53;17.65;;;12.02;;
77040;SDS011;65974;42.664;23.264;2023-11-21T12:30:20;18.63;;;12.82;;
77040;SDS011;65974;42.664;23.264;2023-11-21T12:32:50;24.50;;;13.98;;
77040;SDS011;65974;42.664;23.264;2023-11-21T12:35:19;28.33;;;15.93;;
77040;SDS011;65974;42.664;23.264;2023-11-21T12:37:46;29.63;;;18.70;;
77040;SDS011;65974;42.664;23.264;2023-11-21T12:40:12;21.00;;;13.27;;
77040;SDS011;65974;42.664;23.264;2023-11-21T12:42:47;29.80;;;19.35;;
77040;SDS011;65974;42.664;23.264;2023-11-21T12:48:03;28.10;;;15.50;;
77040;SDS011;65974;42.664;23.264;2023-11-21T12:50:34;32.58;;;22.02;;
77040;SDS011;65974;42.664;23.264;2023-11-21T12:53:02;40.78;;;22.77;;
77040;SDS011;65974;42.664;23.264;2023-11-21T12:55:43;19.15;;;9.68;;
77040;SDS011;65974;42.664;23.264;2023-11-21T12:58:15;22.38;;;13.90;;
77040;SDS011;65974;42.664;23.264;2023-11-21T13:03:13;37.53;;;19.98;;
77040;SDS011;65974;42.664;23.264;2023-11-21T13:05:43;26.17;;;18.40;;
77040;SDS011;65974;42.664;23.264;2023-11-21T13:08:10;34.95;;;20.17;;
77040;SDS011;65974;42.664;23.264;2023-11-21T13:10:41;29.02;;;13.93;;
77040;SDS011;65974;42.664;23.264;2023-11-21T13:13:09;34.47;;;19.45;;
77040;SDS011;65974;42.664;23.264;2023-11-21T13:15:46;29.83;;;20.95;;
77040;SDS011;65974;42.664;23.264;2023-11-21T13:20:48;30.60;;;17.85;;
77040;SDS011;65974;42.664;23.264;2023-11-21T13:23:15;33.33;;;20.45;;
77040;SDS011;65974;42.664;23.264;2023-11-21T13:28:10;56.55;;;27.10;;
77040;SDS011;65974;42.664;23.264;2023-11-21T13:30:37;25.17;;;14.00;;
77040;SDS011;65974;42.664;23.264;2023-11-21T13:33:05;38.75;;;22.85;;
77040;SDS011;65974;42.664;23.264;2023-11-21T13:35:33;36.55;;;22.40;;
77040;SDS011;65974;42.664;23.264;2023-11-21T13:38:12;33.92;;;19.83;;
77040;SDS011;65974;42.664;23.264;2023-11-21T13:40:39;26.83;;;14.98;;
77040;SDS011;65974;42.664;23.264;2023-11-21T13:43:09;20.55;;;13.82;;
77040;SDS011;65974;42.664;23.264;2023-11-21T13:45:36;24.48;;;14.25;;
77040;SDS011;65974;42.664;23.264;2023-11-21T13:48:06;27.90;;;16.65;;
77040;SDS011;65974;42.664;23.264;2023-11-21T13:50:39;32.55;;;19.50;;
77040;SDS011;65974;42.664;23.264;2023-11-21T13:53:13;33.88;;;19.52;;
77040;SDS011;65974;42.664;23.264;2023-11-21T13:55:46;36.65;;;22.08;;
77040;SDS011;65974;42.664;23.264;2023-11-21T13:58:12;41.45;;;25.17;;
77040;SDS011;65974;42.664;23.264;2023-11-21T14:00:44;34.10;;;20.63;;
77040;SDS011;65974;42.664;23.264;2023-11-21T14:03:14;26.60;;;16.55;;
77040;SDS011;65974;42.664;23.264;2023-11-21T14:05:47;38.25;;;22.35;;
77040;SDS011;65974;42.664;23.264;2023-11-21T14:08:19;65.25;;;31.42;;
77040;SDS011;65974;42.664;23.264;2023-11-21T14:10:49;37.20;;;19.10;;
77040;SDS011;65974;42.664;23.264;2023-11-21T14:13:25;24.33;;;13.07;;
77040;SDS011;65974;42.664;23.264;2023-11-21T14:16:00;39.70;;;22.52;;
77040;SDS011;65974;42.664;23.264;2023-11-21T14:18:28;40.45;;;21.25;;
77040;SDS011;65974;42.664;23.264;2023-11-21T14:21:03;57.40;;;27.38;;
77040;SDS011;65974;42.664;23.264;2023-11-21T14:23:30;59.83;;;25.73;;
77040;SDS011;65974;42.664;23.264;2023-11-21T14:25:56;32.28;;;19.88;;
77040;SDS011;65974;42.664;23.264;2023-11-21T14:28:23;18.08;;;13.48;;
77040;SDS011;65974;42.664;23.264;2023-11-21T14:30:48;28.63;;;18.92;;
77040;SDS011;65974;42.664;23.264;2023-11-21T14:33:14;36.10;;;19.33;;
77040;SDS011;65974;42.664;23.264;2023-11-21T14:35:41;26.95;;;16.13;;
77040;SDS011;65974;42.664;23.264;2023-11-21T14:38:08;41.67;;;24.90;;
77040;SDS011;65974;42.664;23.264;2023-11-21T14:40:35;48.25;;;26.98;;
77040;SDS011;65974;42.664;23.264;2023-11-21T14:43:01;53.20;;;29.30;;
77040;SDS011;65974;42.664;23.264;2023-11-21T14:45:30;49.42;;;27.80;;
77040;SDS011;65974;42.664;23.264;2023-11-21T14:47:56;73.18;;;39.60;;
77040;SDS011;65974;42.664;23.264;2023-11-21T14:50:41;66.43;;;38.53;;